Time;durP1;ratioP1;P1;durP2;ratioP2;P2;SDS_P1;SDS_P2;PMS_P1;PMS_P2;Temp;Humidity;BMP_temperature;BMP_pressure;BME280_temperature;BME280_humidity;BME280_pressure;Samples;Min_cycle;Max_cycle;Signal;HPM_P1;HPM_P2
2022/01/04 00:01:31;;;;;;;10.73;6.87;;;;;;;;;;5134274;27;20207;-66
2022/01/04 00:03:59;;;;;;;13.67;6.97;;;;;;;;;;5137779;27;20253;-66
2022/01/04 00:06:27;;;;;;;13.67;6.97;;;;;;;;;;5133574;27;20228;-66
2022/01/04 00:09:00;;;;;;;9.00;5.97;;;;;;;;;;5129160;27;20196;-66
2022/01/04 00:11:41;;;;;;;9.63;5.77;;;;;;;;;;5132863;27;20655;-66
2022/01/04 00:14:09;;;;;;;8.40;5.23;;;;;;;;;;5136495;27;20222;-66
2022/01/04 00:16:37;;;;;;;13.13;6.50;;;;;;;;;;5135293;27;20219;-66
2022/01/04 00:19:05;;;;;;;14.27;6.30;;;;;;;;;;5136998;27;20202;-66
2022/01/04 00:21:33;;;;;;;8.57;5.23;;;;;;;;;;5133350;27;20263;-66
2022/01/04 00:24:03;;;;;;;11.27;5.70;;;;;;;;;;5124689;27;20216;-66
2022/01/04 00:26:31;;;;;;;7.37;5.23;;;;;;;;;;5138328;27;20314;-66
2022/01/04 00:28:59;;;;;;;7.20;5.67;;;;;;;;;;5132519;27;20196;-66
2022/01/04 00:31:27;;;;;;;8.53;4.90;;;;;;;;;;5126522;27;20207;-66
2022/01/04 00:33:55;;;;;;;10.53;5.27;;;;;;;;;;5134358;27;20746;-66
2022/01/04 00:36:23;;;;;;;10.27;4.83;;;;;;;;;;5121753;27;20692;-66
2022/01/04 00:38:51;;;;;;;6.90;5.30;;;;;;;;;;5136283;27;20196;-66
2022/01/04 00:41:20;;;;;;;8.43;5.70;;;;;;;;;;5137688;27;20201;-66
2022/01/04 00:43:48;;;;;;;11.83;5.20;;;;;;;;;;5137562;27;20675;-66
2022/01/04 00:46:17;;;;;;;7.83;5.83;;;;;;;;;;5137143;27;20255;-66
2022/01/04 00:51:31;;;;;;;8.70;5.30;;;;;;;;;;5133454;27;20196;-66
2022/01/04 00:53:59;;;;;;;6.93;5.27;;;;;;;;;;5137116;27;20564;-66
2022/01/04 00:56:29;;;;;;;9.77;4.83;;;;;;;;;;5134539;27;20298;-66
2022/01/04 00:58:57;;;;;;;6.33;4.47;;;;;;;;;;5137200;27;20685;-66
2022/01/04 01:01:26;;;;;;;7.93;4.87;;;;;;;;;;5128997;27;20578;-66
2022/01/04 01:03:54;;;;;;;10.40;4.73;;;;;;;;;;5132526;27;20200;-66
2022/01/04 01:06:22;;;;;;;6.47;4.33;;;;;;;;;;5133686;27;20230;-66
2022/01/04 01:08:50;;;;;;;11.23;5.77;;;;;;;;;;5138812;27;20204;-66
2022/01/04 01:11:18;;;;;;;10.93;6.57;;;;;;;;;;5139257;27;20229;-66
2022/01/04 01:13:48;;;;;;;9.43;6.20;;;;;;;;;;5139194;27;20231;-66
2022/01/04 01:16:16;;;;;;;9.47;6.03;;;;;;;;;;5139248;27;20610;-66
2022/01/04 01:18:44;;;;;;;6.00;4.50;;;;;;;;;;5127702;27;20208;-66
2022/01/04 01:21:12;;;;;;;7.00;4.77;;;;;;;;;;5136357;27;20196;-66
2022/01/04 01:23:40;;;;;;;7.00;3.97;;;;;;;;;;5137200;27;20203;-66
2022/01/04 01:26:09;;;;;;;6.30;3.80;;;;;;;;;;5136991;27;20228;-66
2022/01/04 01:28:38;;;;;;;8.57;4.03;;;;;;;;;;5134657;27;20196;-66
2022/01/04 01:31:08;;;;;;;6.07;3.57;;;;;;;;;;5137114;27;20208;-66
2022/01/04 01:33:36;;;;;;;5.03;3.47;;;;;;;;;;5135031;27;20201;-66
2022/01/04 01:36:04;;;;;;;4.43;3.03;;;;;;;;;;5136512;27;20596;-66
2022/01/04 01:38:32;;;;;;;5.97;3.00;;;;;;;;;;5125233;27;20196;-66
2022/01/04 01:41:00;;;;;;;6.07;2.67;;;;;;;;;;5137137;27;20279;-66
2022/01/04 01:43:29;;;;;;;7.70;3.57;;;;;;;;;;5136440;27;20206;-66
2022/01/04 01:45:57;;;;;;;4.40;2.60;;;;;;;;;;5136725;27;20223;-66
2022/01/04 01:48:27;;;;;;;5.03;3.07;;;;;;;;;;5136340;27;20228;-66
2022/01/04 01:50:55;;;;;;;6.97;2.57;;;;;;;;;;5136967;28;20196;-66
2022/01/04 01:53:23;;;;;;;4.77;2.90;;;;;;;;;;5136061;28;20199;-66
2022/01/04 01:55:51;;;;;;;4.30;2.30;;;;;;;;;;5140005;27;20212;-66
2022/01/04 01:58:19;;;;;;;4.00;1.80;;;;;;;;;;5128776;28;20559;-66
2022/01/04 02:00:47;;;;;;;6.10;2.30;;;;;;;;;;5128644;28;20566;-66
2022/01/04 02:03:15;;;;;;;3.90;2.40;;;;;;;;;;5129800;28;20197;-66
2022/01/04 02:05:45;;;;;;;2.07;1.80;;;;;;;;;;5135215;28;20229;-66
2022/01/04 02:08:15;;;;;;;4.90;2.43;;;;;;;;;;5135241;28;20196;-66
2022/01/04 02:10:43;;;;;;;4.60;2.57;;;;;;;;;;5135911;27;20202;-66
2022/01/04 02:13:11;;;;;;;3.17;1.57;;;;;;;;;;5141070;27;20203;-66
2022/01/04 02:15:39;;;;;;;2.87;2.20;;;;;;;;;;5138793;27;20207;-65
2022/01/04 02:18:08;;;;;;;4.97;2.10;;;;;;;;;;5136964;27;20203;-66
2022/01/04 02:20:37;;;;;;;3.73;1.93;;;;;;;;;;5137857;27;20200;-66
2022/01/04 02:23:05;;;;;;;4.80;1.70;;;;;;;;;;5136147;27;20199;-66
2022/01/04 02:25:33;;;;;;;3.53;1.97;;;;;;;;;;5128596;27;20561;-66
2022/01/04 02:28:01;;;;;;;3.40;2.10;;;;;;;;;;5132590;27;20218;-66
2022/01/04 02:30:30;;;;;;;1.63;1.53;;;;;;;;;;5140832;27;20196;-66
2022/01/04 02:32:59;;;;;;;2.03;1.50;;;;;;;;;;5126372;27;20279;-66
2022/01/04 02:35:28;;;;;;;4.57;1.80;;;;;;;;;;5126756;27;20223;-66
2022/01/04 02:37:57;;;;;;;3.00;1.97;;;;;;;;;;5139908;27;20209;-66
2022/01/04 02:40:26;;;;;;;4.43;1.80;;;;;;;;;;5131168;27;20689;-66
2022/01/04 02:42:54;;;;;;;2.27;1.83;;;;;;;;;;5131764;27;20200;-66
2022/01/04 02:45:22;;;;;;;3.20;1.77;;;;;;;;;;5140216;27;20283;-66
2022/01/04 02:47:50;;;;;;;3.80;2.13;;;;;;;;;;5138777;27;20227;-66
2022/01/04 02:50:19;;;;;;;2.00;1.80;;;;;;;;;;5132193;27;20204;-66
2022/01/04 02:52:47;;;;;;;5.00;2.13;;;;;;;;;;5139374;27;20205;-66
2022/01/04 02:55:17;;;;;;;2.33;1.60;;;;;;;;;;5137931;27;20205;-66
2022/01/04 02:57:45;;;;;;;4.57;1.90;;;;;;;;;;5130154;27;20217;-66
2022/01/04 03:00:14;;;;;;;2.20;1.83;;;;;;;;;;5138443;27;20625;-66
2022/01/04 03:02:43;;;;;;;2.20;1.40;;;;;;;;;;5138925;27;20228;-66
2022/01/04 03:05:11;;;;;;;2.53;1.87;;;;;;;;;;5131052;27;20201;-66
2022/01/04 03:07:39;;;;;;;3.70;1.57;;;;;;;;;;5132408;27;20227;-66
2022/01/04 03:10:07;;;;;;;2.90;1.50;;;;;;;;;;5135317;27;20200;-66
2022/01/04 03:12:39;;;;;;;2.83;1.07;;;;;;;;;;5129871;27;20200;-66
2022/01/04 03:15:07;;;;;;;1.37;1.27;;;;;;;;;;5136539;27;20234;-66
2022/01/04 03:17:35;;;;;;;3.73;1.67;;;;;;;;;;5137633;27;20232;-66
2022/01/04 03:20:03;;;;;;;1.70;1.50;;;;;;;;;;5133107;27;20682;-66
2022/01/04 03:22:31;;;;;;;2.00;1.40;;;;;;;;;;5133432;27;20196;-66
2022/01/04 03:24:59;;;;;;;1.73;1.60;;;;;;;;;;5138537;27;20200;-66
2022/01/04 03:27:28;;;;;;;2.60;1.10;;;;;;;;;;5139627;27;20250;-66
2022/01/04 03:29:58;;;;;;;2.27;1.40;;;;;;;;;;5139173;27;20291;-65
2022/01/04 03:32:26;;;;;;;1.60;1.47;;;;;;;;;;5131495;27;20200;-66
2022/01/04 03:34:54;;;;;;;3.63;1.73;;;;;;;;;;5133498;27;20210;-66
2022/01/04 03:37:22;;;;;;;3.47;1.10;;;;;;;;;;5139418;27;20223;-66
2022/01/04 03:39:49;;;;;;;2.90;1.23;;;;;;;;;;5133622;27;20300;-66
2022/01/04 03:42:17;;;;;;;3.00;1.20;;;;;;;;;;5138849;27;20196;-66
2022/01/04 03:44:45;;;;;;;2.20;1.27;;;;;;;;;;5139265;27;20561;-66
2022/01/04 03:47:15;;;;;;;2.40;1.67;;;;;;;;;;5138119;27;20938;-66
2022/01/04 03:49:43;;;;;;;3.10;1.43;;;;;;;;;;5138970;27;20684;-66
2022/01/04 03:52:11;;;;;;;3.60;1.77;;;;;;;;;;5137796;27;20667;-66
2022/01/04 03:54:39;;;;;;;2.50;1.20;;;;;;;;;;5139217;27;20200;-66
2022/01/04 03:57:07;;;;;;;1.60;1.50;;;;;;;;;;5132914;27;20553;-65
2022/01/04 03:59:35;;;;;;;2.57;1.03;;;;;;;;;;5137240;27;20256;-65
2022/01/04 04:02:04;;;;;;;2.53;1.40;;;;;;;;;;5132216;27;20261;-66
2022/01/04 04:04:34;;;;;;;1.40;1.00;;;;;;;;;;5138799;27;20204;-66
2022/01/04 04:07:02;;;;;;;1.33;1.23;;;;;;;;;;5138171;27;20234;-66
2022/01/04 04:09:34;;;;;;;3.17;1.30;;;;;;;;;;5122747;27;20205;-65
2022/01/04 04:12:03;;;;;;;1.93;1.30;;;;;;;;;;5126578;27;20247;-66
2022/01/04 04:14:31;;;;;;;4.83;1.17;;;;;;;;;;5132891;27;20584;-66
2022/01/04 04:17:11;;;;;;;2.03;1.37;;;;;;;;;;5137220;27;20216;-66
2022/01/04 04:19:41;;;;;;;1.57;1.27;;;;;;;;;;5134657;27;20200;-66
2022/01/04 04:22:09;;;;;;;1.07;1.00;;;;;;;;;;5138722;27;20196;-66
2022/01/04 04:24:37;;;;;;;3.77;1.50;;;;;;;;;;5137995;27;20219;-66
2022/01/04 04:27:05;;;;;;;0.90;0.90;;;;;;;;;;5130020;27;20567;-66
2022/01/04 04:29:33;;;;;;;2.90;1.87;;;;;;;;;;5137810;27;20200;-65
2022/01/04 04:32:02;;;;;;;2.73;1.17;;;;;;;;;;5138593;27;20279;-66
2022/01/04 04:34:30;;;;;;;3.57;1.47;;;;;;;;;;5136320;27;20677;-66
2022/01/04 04:37:00;;;;;;;1.27;1.10;;;;;;;;;;5137910;27;20243;-66
2022/01/04 04:39:27;;;;;;;2.40;1.20;;;;;;;;;;5134535;27;20660;-66
2022/01/04 04:41:56;;;;;;;2.30;1.10;;;;;;;;;;5127141;27;20243;-66
2022/01/04 04:44:24;;;;;;;1.40;0.97;;;;;;;;;;5132672;27;20233;-66
2022/01/04 04:46:52;;;;;;;3.50;1.27;;;;;;;;;;5124146;27;20221;-66
2022/01/04 04:49:20;;;;;;;2.50;1.13;;;;;;;;;;5137364;27;20274;-66
2022/01/04 04:51:48;;;;;;;2.37;1.20;;;;;;;;;;5137093;27;20204;-66
2022/01/04 04:54:17;;;;;;;1.10;1.00;;;;;;;;;;5137718;27;20670;-66
2022/01/04 04:56:45;;;;;;;1.47;1.17;;;;;;;;;;5136136;27;20641;-66
2022/01/04 04:59:13;;;;;;;2.03;1.30;;;;;;;;;;5136439;27;20200;-66
2022/01/04 05:01:41;;;;;;;2.30;1.30;;;;;;;;;;5134968;27;20206;-66
2022/01/04 05:04:09;;;;;;;1.77;1.43;;;;;;;;;;5134993;27;20208;-66
2022/01/04 05:06:37;;;;;;;2.43;1.13;;;;;;;;;;5136973;27;20220;-66
2022/01/04 05:09:05;;;;;;;2.03;1.47;;;;;;;;;;5133102;27;20219;-66
2022/01/04 05:11:35;;;;;;;1.73;1.00;;;;;;;;;;5137498;27;20564;-66
2022/01/04 05:14:03;;;;;;;2.50;1.57;;;;;;;;;;5139341;27;20208;-66
2022/01/04 05:16:31;;;;;;;2.13;1.00;;;;;;;;;;5135183;27;20843;-66
2022/01/04 05:18:59;;;;;;;1.63;1.37;;;;;;;;;;5135346;27;20280;-66
2022/01/04 05:21:27;;;;;;;1.73;1.30;;;;;;;;;;5135994;27;20204;-67
2022/01/04 05:23:55;;;;;;;2.03;1.10;;;;;;;;;;5137245;27;20201;-66
2022/01/04 05:26:23;;;;;;;6.43;1.50;;;;;;;;;;5134016;27;20222;-66
2022/01/04 05:28:52;;;;;;;2.93;1.20;;;;;;;;;;5140944;27;20220;-66
2022/01/04 05:31:20;;;;;;;2.63;1.20;;;;;;;;;;5139236;27;20286;-66
2022/01/04 05:33:48;;;;;;;1.40;1.00;;;;;;;;;;5141470;27;20204;-65
2022/01/04 05:36:16;;;;;;;2.73;0.97;;;;;;;;;;5140260;27;20225;-66
2022/01/04 05:38:44;;;;;;;2.00;1.50;;;;;;;;;;5138403;27;20216;-66
2022/01/04 05:41:12;;;;;;;3.43;1.37;;;;;;;;;;5145958;27;20200;-66
2022/01/04 05:43:40;;;;;;;1.10;1.10;;;;;;;;;;5144785;27;20655;-66
2022/01/04 05:46:10;;;;;;;3.27;1.17;;;;;;;;;;5143671;27;20279;-66
2022/01/04 05:48:38;;;;;;;3.10;1.53;;;;;;;;;;5144387;27;20232;-66
2022/01/04 05:51:06;;;;;;;1.67;1.33;;;;;;;;;;5126659;28;20204;-66
2022/01/04 05:53:34;;;;;;;1.43;1.20;;;;;;;;;;5128969;28;20196;-66
2022/01/04 05:56:02;;;;;;;1.90;1.80;;;;;;;;;;5126706;28;20226;-66
2022/01/04 05:58:30;;;;;;;1.70;1.27;;;;;;;;;;5130300;28;20206;-66
2022/01/04 06:00:58;;;;;;;6.10;2.00;;;;;;;;;;5136311;28;20647;-65
2022/01/04 06:03:28;;;;;;;1.80;1.10;;;;;;;;;;5132995;28;20207;-66
2022/01/04 06:05:56;;;;;;;1.37;1.27;;;;;;;;;;5133312;27;20220;-65
2022/01/04 06:08:30;;;;;;;1.30;1.00;;;;;;;;;;5123962;28;20235;-67
2022/01/04 06:10:58;;;;;;;3.57;1.53;;;;;;;;;;5136589;28;20196;-65
2022/01/04 06:16:07;;;;;;;3.03;1.60;;;;;;;;;;5113471;28;20216;-66
2022/01/04 06:18:37;;;;;;;5.27;1.50;;;;;;;;;;5133453;28;20193;-67
2022/01/04 06:21:06;;;;;;;3.40;1.50;;;;;;;;;;5125226;28;20280;-67
2022/01/04 06:23:34;;;;;;;2.90;1.83;;;;;;;;;;5135374;28;20204;-66
2022/01/04 06:26:02;;;;;;;2.57;1.70;;;;;;;;;;5136566;28;20216;-66
2022/01/04 06:28:30;;;;;;;4.90;2.47;;;;;;;;;;5135147;28;20226;-66
2022/01/04 06:30:58;;;;;;;3.87;1.87;;;;;;;;;;5125322;28;20204;-66
2022/01/04 06:33:26;;;;;;;6.13;3.27;;;;;;;;;;5128267;28;20208;-66
2022/01/04 06:35:55;;;;;;;4.37;2.00;;;;;;;;;;5127999;28;20220;-66
2022/01/04 06:38:23;;;;;;;6.17;2.17;;;;;;;;;;5134339;27;20678;-65
2022/01/04 06:40:51;;;;;;;10.00;2.77;;;;;;;;;;5122687;28;20284;-65
2022/01/04 06:43:19;;;;;;;2.30;1.80;;;;;;;;;;5133782;27;20207;-65
2022/01/04 06:45:47;;;;;;;5.70;2.57;;;;;;;;;;5127434;28;20201;-64
2022/01/04 06:48:15;;;;;;;2.23;1.50;;;;;;;;;;5128187;28;20224;-64
2022/01/04 06:50:43;;;;;;;4.23;2.50;;;;;;;;;;5138957;27;20275;-65
2022/01/04 06:53:14;;;;;;;2.37;2.13;;;;;;;;;;5141825;27;20199;-65
2022/01/04 06:55:42;;;;;;;4.37;2.37;;;;;;;;;;5139684;27;20201;-65
2022/01/04 06:58:10;;;;;;;4.87;2.27;;;;;;;;;;5131699;27;20209;-64
2022/01/04 07:00:38;;;;;;;4.53;2.23;;;;;;;;;;5139175;27;20210;-65
2022/01/04 07:03:08;;;;;;;2.60;2.40;;;;;;;;;;5139810;27;20207;-66
2022/01/04 07:05:37;;;;;;;4.27;2.80;;;;;;;;;;5141646;27;20646;-66
2022/01/04 07:08:05;;;;;;;4.03;2.30;;;;;;;;;;5144816;27;20232;-66
2022/01/04 07:10:36;;;;;;;3.17;1.60;;;;;;;;;;5135076;27;20246;-66
2022/01/04 07:13:05;;;;;;;2.00;1.70;;;;;;;;;;5132262;27;20207;-66
2022/01/04 07:15:33;;;;;;;3.97;1.97;;;;;;;;;;5141326;27;20204;-66
2022/01/04 07:18:01;;;;;;;2.37;1.60;;;;;;;;;;5141016;27;20219;-66
2022/01/04 07:20:29;;;;;;;4.80;2.00;;;;;;;;;;5134760;27;20257;-65
2022/01/04 07:22:58;;;;;;;4.30;2.10;;;;;;;;;;5138385;27;20220;-65
2022/01/04 07:25:26;;;;;;;4.10;1.73;;;;;;;;;;5139243;27;20191;-66
2022/01/04 07:27:56;;;;;;;4.47;2.13;;;;;;;;;;5139173;27;20667;-66
2022/01/04 07:30:24;;;;;;;2.27;1.80;;;;;;;;;;5130743;27;20272;-65
2022/01/04 07:32:52;;;;;;;3.80;2.00;;;;;;;;;;5143837;27;20235;-64
2022/01/04 07:35:20;;;;;;;2.80;1.97;;;;;;;;;;5145595;27;20211;-64
2022/01/04 07:37:48;;;;;;;5.07;2.03;;;;;;;;;;5145944;27;20215;-64
2022/01/04 07:40:17;;;;;;;5.53;2.57;;;;;;;;;;5148470;27;20228;-64
2022/01/04 07:42:45;;;;;;;5.43;2.50;;;;;;;;;;5138961;27;20245;-64
2022/01/04 07:45:15;;;;;;;4.30;3.30;;;;;;;;;;5138714;27;20204;-64
2022/01/04 07:47:44;;;;;;;4.20;2.53;;;;;;;;;;5146057;27;20307;-64
2022/01/04 07:50:12;;;;;;;7.73;3.17;;;;;;;;;;5144660;27;20247;-66
2022/01/04 07:52:41;;;;;;;6.17;2.50;;;;;;;;;;5146718;27;20200;-65
2022/01/04 07:55:09;;;;;;;4.40;2.87;;;;;;;;;;5144210;27;20203;-65
2022/01/04 07:57:38;;;;;;;4.87;2.77;;;;;;;;;;5136491;27;20217;-66
2022/01/04 08:00:08;;;;;;;5.37;2.67;;;;;;;;;;5138708;27;20279;-65
2022/01/04 08:02:40;;;;;;;3.40;2.53;;;;;;;;;;5142384;27;20208;-66
2022/01/04 08:05:08;;;;;;;4.30;2.57;;;;;;;;;;5143461;27;20199;-67
2022/01/04 08:07:37;;;;;;;5.27;3.10;;;;;;;;;;5144272;27;20225;-66
2022/01/04 08:10:06;;;;;;;4.57;2.10;;;;;;;;;;5138098;27;20278;-67
2022/01/04 08:12:35;;;;;;;3.27;2.47;;;;;;;;;;5137092;27;20257;-67
2022/01/04 08:15:04;;;;;;;5.70;3.07;;;;;;;;;;5132087;27;20207;-67
2022/01/04 08:17:32;;;;;;;5.07;3.30;;;;;;;;;;5135487;27;20228;-66
2022/01/04 08:20:02;;;;;;;3.67;2.70;;;;;;;;;;5137804;27;20200;-67
2022/01/04 08:22:32;;;;;;;4.17;2.70;;;;;;;;;;5129707;27;20199;-67
2022/01/04 08:25:01;;;;;;;4.40;2.20;;;;;;;;;;5137962;27;20196;-66
2022/01/04 08:27:29;;;;;;;3.27;2.33;;;;;;;;;;5140549;27;20219;-66
2022/01/04 08:29:57;;;;;;;4.77;2.57;;;;;;;;;;5137845;27;20221;-66
2022/01/04 08:32:25;;;;;;;5.47;2.60;;;;;;;;;;5141304;27;20199;-66
2022/01/04 08:34:54;;;;;;;3.73;2.13;;;;;;;;;;5143174;27;20204;-66
2022/01/04 08:37:24;;;;;;;5.53;3.03;;;;;;;;;;5140276;27;20310;-67
2022/01/04 08:39:52;;;;;;;4.07;2.97;;;;;;;;;;5146180;27;20275;-66
2022/01/04 08:42:22;;;;;;;7.43;2.50;;;;;;;;;;5141806;27;20239;-66
2022/01/04 08:44:50;;;;;;;4.93;2.63;;;;;;;;;;5144382;27;20196;-66
2022/01/04 08:47:18;;;;;;;5.53;2.53;;;;;;;;;;5146185;27;20262;-67
2022/01/04 08:49:46;;;;;;;4.07;2.83;;;;;;;;;;5136583;27;20223;-67
2022/01/04 08:52:15;;;;;;;4.60;2.67;;;;;;;;;;5137519;27;20204;-67
2022/01/04 08:54:48;;;;;;;5.07;2.90;;;;;;;;;;5128619;27;20280;-67
2022/01/04 08:57:16;;;;;;;3.73;2.63;;;;;;;;;;5126207;27;20212;-66
2022/01/04 08:59:46;;;;;;;4.97;2.43;;;;;;;;;;5134985;27;20663;-66
2022/01/04 09:02:14;;;;;;;4.70;2.70;;;;;;;;;;5135259;27;20200;-66
2022/01/04 09:04:43;;;;;;;4.37;2.40;;;;;;;;;;5139858;27;20196;-67
2022/01/04 09:07:11;;;;;;;3.50;2.77;;;;;;;;;;5133235;27;20596;-67
2022/01/04 09:09:40;;;;;;;3.83;2.60;;;;;;;;;;5133071;27;20702;-67
2022/01/04 09:12:37;;;;;;;4.13;2.00;;;;;;;;;;5129591;27;20211;-67
2022/01/04 09:15:26;;;;;;;4.53;3.10;;;;;;;;;;5135796;27;20196;-67
2022/01/04 09:20:39;;;;;;;3.90;2.37;;;;;;;;;;5123010;27;20260;-67
2022/01/04 09:23:07;;;;;;;5.27;2.90;;;;;;;;;;5132682;27;20203;-67
2022/01/04 09:25:35;;;;;;;2.90;2.47;;;;;;;;;;5136783;27;20566;-66
2022/01/04 09:28:10;;;;;;;3.50;2.73;;;;;;;;;;5128292;27;20207;-67
2022/01/04 09:30:38;;;;;;;7.33;2.90;;;;;;;;;;5136941;27;20228;-67
2022/01/04 09:33:09;;;;;;;4.80;2.97;;;;;;;;;;5130315;27;20199;-67
2022/01/04 09:35:37;;;;;;;3.37;2.53;;;;;;;;;;5137633;27;20264;-67
2022/01/04 09:38:06;;;;;;;2.87;2.43;;;;;;;;;;5136359;27;20651;-67
2022/01/04 09:40:35;;;;;;;8.00;2.57;;;;;;;;;;5129722;27;20196;-67
2022/01/04 09:43:04;;;;;;;2.93;2.23;;;;;;;;;;5136737;27;20192;-67
2022/01/04 09:45:33;;;;;;;4.03;2.80;;;;;;;;;;5136867;27;20206;-66
2022/01/04 09:48:02;;;;;;;4.60;2.60;;;;;;;;;;5136665;27;20230;-67
2022/01/04 09:50:30;;;;;;;5.60;2.83;;;;;;;;;;5134435;27;20589;-67
2022/01/04 09:52:58;;;;;;;6.47;2.70;;;;;;;;;;5136427;28;20203;-66
2022/01/04 09:55:26;;;;;;;6.63;2.90;;;;;;;;;;5138596;27;20602;-66
2022/01/04 09:57:54;;;;;;;3.93;2.30;;;;;;;;;;5131703;28;20204;-66
2022/01/04 10:00:23;;;;;;;3.77;3.43;;;;;;;;;;5134049;27;20224;-67
2022/01/04 10:02:53;;;;;;;4.33;2.73;;;;;;;;;;5143196;27;20204;-66
2022/01/04 10:05:23;;;;;;;4.80;2.77;;;;;;;;;;5135964;28;20204;-66
2022/01/04 10:08:02;;;;;;;2.90;2.60;;;;;;;;;;5136977;28;20212;-66
2022/01/04 10:10:30;;;;;;;5.03;2.33;;;;;;;;;;5136102;28;20220;-66
2022/01/04 10:13:01;;;;;;;3.50;2.57;;;;;;;;;;5131508;28;20192;-66
2022/01/04 10:15:30;;;;;;;4.30;2.87;;;;;;;;;;5134679;28;20242;-66
2022/01/04 10:18:02;;;;;;;5.03;2.63;;;;;;;;;;5130322;28;20215;-66
2022/01/04 10:20:31;;;;;;;2.90;2.37;;;;;;;;;;5128533;27;20197;-66
2022/01/04 10:23:11;;;;;;;5.93;2.33;;;;;;;;;;5136440;28;20226;-66
2022/01/04 10:25:40;;;;;;;4.63;2.67;;;;;;;;;;5135504;28;20290;-66
2022/01/04 10:28:11;;;;;;;3.10;2.33;;;;;;;;;;5136502;28;20542;-66
2022/01/04 10:30:43;;;;;;;4.43;2.57;;;;;;;;;;5135742;28;20224;-66
2022/01/04 10:33:14;;;;;;;3.17;2.57;;;;;;;;;;5138270;27;20200;-66
2022/01/04 10:35:42;;;;;;;5.93;2.80;;;;;;;;;;5139051;27;20911;-66
2022/01/04 10:38:13;;;;;;;3.47;2.40;;;;;;;;;;5140463;27;20241;-66
2022/01/04 10:40:42;;;;;;;3.17;2.73;;;;;;;;;;5139457;27;20283;-67
2022/01/04 10:43:11;;;;;;;5.43;2.23;;;;;;;;;;5130597;27;20313;-66
2022/01/04 10:45:41;;;;;;;2.80;2.50;;;;;;;;;;5138901;27;20197;-67
2022/01/04 10:48:26;;;;;;;2.73;2.43;;;;;;;;;;5139844;27;20224;-67
2022/01/04 10:50:56;;;;;;;3.37;2.23;;;;;;;;;;5130159;27;20265;-67
2022/01/04 10:53:29;;;;;;;4.43;2.50;;;;;;;;;;5131883;27;20228;-66
2022/01/04 10:55:59;;;;;;;2.97;2.77;;;;;;;;;;5135083;27;20222;-67
2022/01/04 10:58:29;;;;;;;4.93;2.53;;;;;;;;;;5131809;27;20210;-67
2022/01/04 11:00:58;;;;;;;4.43;2.93;;;;;;;;;;5130291;27;20196;-66
2022/01/04 11:03:28;;;;;;;4.80;2.43;;;;;;;;;;5135462;27;20287;-65
2022/01/04 11:06:01;;;;;;;4.00;2.33;;;;;;;;;;5139209;27;20717;-65
2022/01/04 11:08:29;;;;;;;4.27;2.57;;;;;;;;;;5126821;27;20206;-65
2022/01/04 11:10:58;;;;;;;3.80;2.37;;;;;;;;;;5130917;27;20220;-65
2022/01/04 11:13:26;;;;;;;4.87;2.63;;;;;;;;;;5139861;27;20214;-66
2022/01/04 11:15:54;;;;;;;2.83;2.63;;;;;;;;;;5138849;27;20219;-65
2022/01/04 11:18:22;;;;;;;3.00;2.70;;;;;;;;;;5137886;27;20230;-66
2022/01/04 11:20:51;;;;;;;3.70;3.07;;;;;;;;;;5136434;27;20200;-65
2022/01/04 11:23:24;;;;;;;5.10;2.90;;;;;;;;;;5139004;27;20200;-65
2022/01/04 11:25:52;;;;;;;4.63;3.70;;;;;;;;;;5138512;27;20586;-68
2022/01/04 11:28:20;;;;;;;5.27;3.20;;;;;;;;;;5142740;27;20283;-64
2022/01/04 11:31:12;;;;;;;4.83;3.50;;;;;;;;;;5146339;27;20224;-64
2022/01/04 11:33:50;;;;;;;4.53;2.93;;;;;;;;;;5116378;27;20200;-64
2022/01/04 11:36:19;;;;;;;4.23;2.87;;;;;;;;;;5133901;27;20242;-65
2022/01/04 11:38:49;;;;;;;4.80;3.53;;;;;;;;;;5141800;27;20204;-64
2022/01/04 11:41:22;;;;;;;4.40;2.60;;;;;;;;;;5144937;27;20188;-65
2022/01/04 11:43:50;;;;;;;4.37;3.30;;;;;;;;;;5144145;27;20192;-64
2022/01/04 11:46:42;;;;;;;5.37;2.83;;;;;;;;;;5144582;27;20226;-64
2022/01/04 11:49:11;;;;;;;3.10;2.80;;;;;;;;;;5117869;27;20224;-65
2022/01/04 11:51:41;;;;;;;5.60;3.10;;;;;;;;;;5144449;27;20272;-64
2022/01/04 11:54:18;;;;;;;2.97;2.67;;;;;;;;;;5147944;27;20247;-64
2022/01/04 11:56:47;;;;;;;5.40;2.77;;;;;;;;;;5145941;27;20220;-65
2022/01/04 11:59:19;;;;;;;4.80;2.97;;;;;;;;;;5149971;27;20214;-65
2022/01/04 12:01:47;;;;;;;5.53;3.37;;;;;;;;;;5146014;27;20198;-65
2022/01/04 12:04:30;;;;;;;5.50;3.33;;;;;;;;;;5148244;27;20200;-64
2022/01/04 12:06:58;;;;;;;4.50;3.40;;;;;;;;;;5146480;27;20219;-66
2022/01/04 12:09:29;;;;;;;4.33;3.20;;;;;;;;;;5148212;27;20655;-65
2022/01/04 12:11:57;;;;;;;5.87;3.87;;;;;;;;;;5130236;27;20744;-65
2022/01/04 12:14:27;;;;;;;3.97;2.83;;;;;;;;;;5138062;27;20196;-65
2022/01/04 12:17:04;;;;;;;6.50;3.57;;;;;;;;;;5133858;27;20234;-65
2022/01/04 12:19:48;;;;;;;4.30;2.90;;;;;;;;;;5133689;27;20196;-65
2022/01/04 12:22:29;;;;;;;4.73;3.17;;;;;;;;;;5144310;27;20769;-65
2022/01/04 12:25:04;;;;;;;3.93;3.53;;;;;;;;;;5141480;27;20192;-65
2022/01/04 12:27:32;;;;;;;5.33;3.37;;;;;;;;;;5137514;27;20246;-65
2022/01/04 12:30:19;;;;;;;6.33;3.43;;;;;;;;;;5137290;27;20200;-64
2022/01/04 12:32:47;;;;;;;5.47;3.30;;;;;;;;;;5140616;27;20220;-65
2022/01/04 12:35:16;;;;;;;3.93;3.33;;;;;;;;;;5140634;27;20287;-65
2022/01/04 12:37:44;;;;;;;7.10;3.37;;;;;;;;;;5137085;27;20243;-65
2022/01/04 12:40:14;;;;;;;4.67;3.63;;;;;;;;;;5126864;27;20211;-65
2022/01/04 12:42:42;;;;;;;6.87;4.27;;;;;;;;;;5134161;27;20200;-65
2022/01/04 12:45:13;;;;;;;5.50;4.20;;;;;;;;;;5136698;27;20208;-65
2022/01/04 12:47:48;;;;;;;5.50;4.13;;;;;;;;;;5130778;27;20357;-65
2022/01/04 12:50:16;;;;;;;8.83;4.43;;;;;;;;;;5136296;27;20290;-65
2022/01/04 12:52:49;;;;;;;8.73;4.93;;;;;;;;;;5132228;27;20242;-65
2022/01/04 12:55:19;;;;;;;9.53;5.30;;;;;;;;;;5134319;27;20298;-65
2022/01/04 12:57:52;;;;;;;6.50;4.87;;;;;;;;;;5126772;27;20687;-65
2022/01/04 13:00:20;;;;;;;8.50;4.27;;;;;;;;;;5142692;27;20210;-65
2022/01/04 13:02:48;;;;;;;5.00;3.93;;;;;;;;;;5147262;27;20203;-65
2022/01/04 13:05:18;;;;;;;5.77;4.03;;;;;;;;;;5139284;27;20238;-65
2022/01/04 13:07:46;;;;;;;9.90;4.10;;;;;;;;;;5147369;27;20215;-65
2022/01/04 13:10:15;;;;;;;5.80;3.50;;;;;;;;;;5138965;27;20200;-65
2022/01/04 13:12:45;;;;;;;3.60;2.93;;;;;;;;;;5137432;27;20216;-65
2022/01/04 13:15:14;;;;;;;5.83;3.73;;;;;;;;;;5135596;27;20205;-65
2022/01/04 13:17:43;;;;;;;5.83;3.60;;;;;;;;;;5135658;27;20311;-65
2022/01/04 13:20:12;;;;;;;4.47;3.23;;;;;;;;;;5138197;27;20192;-65
2022/01/04 13:22:40;;;;;;;3.90;3.50;;;;;;;;;;5144109;27;20209;-64
2022/01/04 13:25:08;;;;;;;5.33;4.20;;;;;;;;;;5131338;27;20659;-64
2022/01/04 13:27:37;;;;;;;5.23;3.43;;;;;;;;;;5136408;27;20219;-64
2022/01/04 13:30:17;;;;;;;4.27;3.63;;;;;;;;;;5142099;27;20206;-63
2022/01/04 13:32:46;;;;;;;3.00;2.70;;;;;;;;;;5144434;27;20276;-64
2022/01/04 13:35:19;;;;;;;5.23;3.37;;;;;;;;;;5141751;27;20200;-64
2022/01/04 13:37:49;;;;;;;4.43;2.70;;;;;;;;;;5147146;27;20232;-64
2022/01/04 13:40:17;;;;;;;4.07;2.97;;;;;;;;;;5133707;27;20205;-64
2022/01/04 13:42:45;;;;;;;3.30;3.00;;;;;;;;;;5119307;27;20284;-63
2022/01/04 13:45:15;;;;;;;6.57;3.17;;;;;;;;;;5119385;27;20197;-64
2022/01/04 13:47:45;;;;;;;3.13;2.83;;;;;;;;;;5118181;27;20236;-63
2022/01/04 13:50:15;;;;;;;3.57;2.60;;;;;;;;;;5119081;27;20201;-63
2022/01/04 13:52:54;;;;;;;2.40;2.20;;;;;;;;;;5122707;27;20220;-64
2022/01/04 13:55:22;;;;;;;2.97;2.60;;;;;;;;;;5122752;27;20208;-63
2022/01/04 13:57:50;;;;;;;3.60;2.40;;;;;;;;;;5127295;27;20227;-64
2022/01/04 14:00:33;;;;;;;2.77;2.40;;;;;;;;;;5125069;27;20201;-64
2022/01/04 14:03:02;;;;;;;11.83;5.60;;;;;;;;;;5130827;27;20639;-64
2022/01/04 14:05:37;;;;;;;4.70;3.40;;;;;;;;;;5126144;27;20579;-64
2022/01/04 14:08:05;;;;;;;4.60;2.77;;;;;;;;;;5138172;27;20195;-64
2022/01/04 14:10:49;;;;;;;3.77;2.40;;;;;;;;;;5141163;27;20234;-64
2022/01/04 14:13:35;;;;;;;2.77;2.50;;;;;;;;;;5140815;27;20223;-64
2022/01/04 14:16:07;;;;;;;3.03;2.60;;;;;;;;;;5132781;27;20573;-64
2022/01/04 14:18:37;;;;;;;5.73;2.60;;;;;;;;;;5137000;27;20208;-64
2022/01/04 14:21:05;;;;;;;2.27;2.07;;;;;;;;;;5135352;27;20555;-64
2022/01/04 14:23:34;;;;;;;2.40;2.20;;;;;;;;;;5140651;27;20196;-64
2022/01/04 14:26:02;;;;;;;5.63;2.40;;;;;;;;;;5135599;27;20223;-64
2022/01/04 14:28:35;;;;;;;2.63;2.43;;;;;;;;;;5135596;27;20204;-64
2022/01/04 14:31:02;;;;;;;3.77;2.43;;;;;;;;;;5136675;27;20201;-63
2022/01/04 14:33:31;;;;;;;3.23;2.50;;;;;;;;;;5133122;27;20652;-64
2022/01/04 14:36:00;;;;;;;4.63;2.77;;;;;;;;;;5135919;27;20216;-64
2022/01/04 14:38:28;;;;;;;6.00;2.90;;;;;;;;;;5140119;27;20567;-64
2022/01/04 14:40:56;;;;;;;3.90;2.83;;;;;;;;;;5130849;27;20196;-64
2022/01/04 14:43:25;;;;;;;3.33;2.60;;;;;;;;;;5140209;27;20674;-63
2022/01/04 14:45:53;;;;;;;3.10;2.80;;;;;;;;;;5135401;27;20680;-64
2022/01/04 14:48:21;;;;;;;3.97;2.60;;;;;;;;;;5139863;27;20227;-63
2022/01/04 14:50:49;;;;;;;6.07;2.87;;;;;;;;;;5139509;27;20210;-63
2022/01/04 14:53:21;;;;;;;3.67;2.77;;;;;;;;;;5139171;27;20226;-64
2022/01/04 14:55:49;;;;;;;2.63;2.30;;;;;;;;;;5141412;27;20206;-64
2022/01/04 14:58:29;;;;;;;3.90;2.50;;;;;;;;;;5131785;27;20634;-63
2022/01/04 15:00:58;;;;;;;3.13;2.20;;;;;;;;;;5131228;27;20201;-63
2022/01/04 15:03:26;;;;;;;2.63;2.33;;;;;;;;;;5131435;27;20195;-64
2022/01/04 15:05:54;;;;;;;3.47;2.60;;;;;;;;;;5138919;27;20302;-64